Adams, Tennessee
Current Conditions -  °F | °C
As of 12:52 PM on Friday 31 Oct 2014 (Local Time) from KCKV Reporting Station
Overcast Overcast  
Wind Chill: 50°   Ceiling: 2700
Heat Index: 50°   Visibility: 10mi
Dew Point: 41°   Wind: 16mph
Humidity: 71%   Direction: 340°NNW
Pressure: 30.05"   Gusts: 25mph
Location:  36.58°N, 87.07°W
Report Text: KCKV 311752Z AUTO 34014G22KT 10SM SCT022 BKN027 OVC038 10/05 A3005 RMK AO2 PK WND 33026/1739 SLP175 60000 T01000050 10106 20094 58005
Loading
Personal Weather Stations






























Interactive Weather Map
Tropical Storm Tracking
New forecast layout! Learn more

10-Day Weather Forecast

Advertisements
Track Severe Weather on mobile